Aviation Digital Data Service (ADDS)

Output produced by METARs form (1157 UTC 18 June 2019)
found at http://www.aviationweather.gov/metar/data/
 
Forecast for: LXGB (GIBRALTAR (CIV/M, GI)
Text: TAF LXGB 181035Z 1812/1821 27012KT 9999 FEW030
Forecast period: 1200 to 2100 UTC 18 June 2019
Forecast type: FROM: standard forecast or significant change
Winds: from the W (270 degrees) at 14 MPH (12 knots; 6.2 m/s)
Visibility: 6 or more miles 10+ km)
Ceiling: at least 12,000 feet AGL
Clouds: few clouds at 3000 feet AGL
Weather: no significant weather forecast for this period
Text: PROB40
Forecast period: 1200 to 1600 UTC 18 June 2019
Forecast type: TEMPORARY: The following changes expected for less than half the time period
Winds: from the SSW (200 degrees) at 16 MPH (14 knots; 7.2 m/s)
Visibility: missing
Ceiling: unknown
Clouds: missing
Weather: no significant weather forecast for this period